createdAt,value
2022-10-23T00:14:12.558Z,84.45
2022-10-23T00:44:12.570Z,84.61
2022-10-23T01:14:12.569Z,84.94
2022-10-23T01:44:12.581Z,85.19
2022-10-23T02:14:12.595Z,85.46
2022-10-23T02:44:12.578Z,85.49
2022-10-23T03:14:12.602Z,85.83
2022-10-23T03:44:12.596Z,86.01
2022-10-23T04:14:12.603Z,86.24
2022-10-23T04:44:12.612Z,86.48
2022-10-23T05:14:12.602Z,86.53
2022-10-23T05:44:12.613Z,86.66
2022-10-23T06:14:12.627Z,86.98
2022-10-23T06:44:12.624Z,87.24
2022-10-23T07:14:12.654Z,86.99
2022-10-23T07:44:12.633Z,87.22
2022-10-23T08:14:12.644Z,86.84
2022-10-23T08:44:12.646Z,86.3
2022-10-23T09:14:12.644Z,85.77
2022-10-23T09:44:12.644Z,85.17
2022-10-23T10:14:12.649Z,84.47
2022-10-23T10:44:12.719Z,83.15
2022-10-23T11:14:12.661Z,81.4
2022-10-23T11:44:12.678Z,80.14
2022-10-23T12:44:12.695Z,78.3
2022-10-23T13:14:12.691Z,77.6
2022-10-23T13:44:12.703Z,77.19
2022-10-23T14:14:12.704Z,77
2022-10-23T14:44:12.706Z,76.68
2022-10-23T15:14:12.711Z,76.73
2022-10-23T15:44:12.715Z,76.65
2022-10-23T16:14:12.713Z,77.19
2022-10-23T16:44:12.723Z,77.58
2022-10-23T17:14:12.729Z,77.81
2022-10-23T17:44:12.724Z,78.22
2022-10-23T18:14:12.724Z,78.55
2022-10-23T18:44:12.761Z,78.92
2022-10-23T19:14:12.730Z,78.98
2022-10-23T19:44:12.743Z,79.29
2022-10-23T20:14:12.741Z,79.39
2022-10-23T20:44:12.842Z,79.79
2022-10-23T21:14:12.755Z,80.05
2022-10-23T21:44:12.759Z,80.26
2022-10-23T22:14:12.749Z,80.57
2022-10-23T22:44:12.785Z,80.89
2022-10-23T23:14:12.785Z,80.62
2022-10-23T23:44:12.777Z,80.45
